Time;durP1;ratioP1;P1;durP2;ratioP2;P2;SDS_P1;SDS_P2;PMS_P1;PMS_P2;Temp;Humidity;BMP_temperature;BMP_pressure;BME280_temperature;BME280_humidity;BME280_pressure;Samples;Min_cycle;Max_cycle;Signal;HPM_P1;HPM_P2
2023/01/08 00:02:26;;;;;;;;;3.67;3.67;;;;;;;;5188848;28;9189;-71
2023/01/08 00:05:15;;;;;;;;;2.33;2.33;;;;;;;;5191367;28;9508;-74
2023/01/08 00:07:47;;;;;;;;;0.00;0.00;;;;;;;;5207235;28;9575;-72
2023/01/08 00:10:18;;;;;;;;;0.33;0.33;;;;;;;;5188937;28;9273;-72
2023/01/08 00:13:08;;;;;;;;;4.33;4.33;;;;;;;;5205299;28;9323;-72
2023/01/08 00:15:39;;;;;;;;;4.67;4.67;;;;;;;;5206476;28;9556;-73
2023/01/08 00:18:10;;;;;;;;;0.00;0.00;;;;;;;;5205187;28;9366;-74
2023/01/08 00:20:43;;;;;;;;;4.00;3.67;;;;;;;;5205521;28;9183;-73
2023/01/08 00:23:16;;;;;;;;;4.00;4.00;;;;;;;;5205253;28;10204;-72
2023/01/08 00:25:47;;;;;;;;;1.00;1.00;;;;;;;;5188403;28;9459;-72
2023/01/08 00:28:19;;;;;;;;;6.67;6.67;;;;;;;;5204787;28;9282;-71
2023/01/08 00:30:51;;;;;;;;;0.00;0.00;;;;;;;;5171972;28;9526;-73
2023/01/08 00:33:22;;;;;;;;;0.00;0.00;;;;;;;;5172356;28;9981;-71
2023/01/08 00:36:16;;;;;;;;;0.00;0.00;;;;;;;;5205507;28;9140;-70
2023/01/08 00:38:48;;;;;;;;;1.67;1.00;;;;;;;;5189406;28;9205;-72
2023/01/08 00:41:38;;;;;;;;;1.00;1.00;;;;;;;;5205564;28;9186;-71
2023/01/08 00:44:09;;;;;;;;;0.00;0.00;;;;;;;;5204956;28;9252;-72
2023/01/08 00:46:40;;;;;;;;;0.00;0.00;;;;;;;;5204632;28;9182;-75
2023/01/08 00:49:30;;;;;;;;;0.00;0.00;;;;;;;;5204931;28;9893;-74
2023/01/08 00:52:01;;;;;;;;;0.00;0.00;;;;;;;;5171939;28;9042;-75
2023/01/08 00:54:32;;;;;;;;;0.00;0.00;;;;;;;;5183468;28;9230;-76
2023/01/08 00:57:04;;;;;;;;;3.67;3.67;;;;;;;;5220531;28;8976;-75
2023/01/08 00:59:35;;;;;;;;;0.00;0.00;;;;;;;;5175377;28;9607;-74
2023/01/08 01:02:07;;;;;;;;;2.33;2.33;;;;;;;;5205982;28;9225;-74
2023/01/08 01:04:38;;;;;;;;;3.00;3.00;;;;;;;;5172158;28;10160;-74
2023/01/08 01:07:09;;;;;;;;;0.00;0.00;;;;;;;;5204356;28;9591;-73
2023/01/08 01:09:40;;;;;;;;;0.33;0.33;;;;;;;;5187846;28;9345;-74
2023/01/08 01:12:30;;;;;;;;;0.67;0.67;;;;;;;;5190701;28;9344;-73
2023/01/08 01:15:01;;;;;;;;;0.00;0.00;;;;;;;;5205942;28;9429;-74
2023/01/08 01:17:34;;;;;;;;;0.00;0.00;;;;;;;;5204140;28;9291;-74
2023/01/08 01:20:23;;;;;;;;;6.00;6.00;;;;;;;;5204883;28;9179;-74
2023/01/08 01:22:55;;;;;;;;;0.00;0.00;;;;;;;;5187376;28;9512;-74
2023/01/08 01:25:44;;;;;;;;;0.00;0.00;;;;;;;;5191079;28;10032;-73
2023/01/08 01:28:16;;;;;;;;;1.00;1.00;;;;;;;;5205024;28;9184;-74
2023/01/08 01:30:53;;;;;;;;;0.00;0.00;;;;;;;;5170876;28;9090;-75
2023/01/08 01:33:25;;;;;;;;;2.33;2.33;;;;;;;;5188694;28;9152;-77
2023/01/08 01:36:00;;;;;;;;;0.00;0.00;;;;;;;;5204116;28;9205;-78
2023/01/08 01:38:31;;;;;;;;;0.00;0.00;;;;;;;;5172390;28;9171;-78
2023/01/08 01:41:03;;;;;;;;;3.00;3.00;;;;;;;;5187719;28;9044;-79
2023/01/08 01:43:35;;;;;;;;;0.00;0.00;;;;;;;;5187668;28;9464;-78
2023/01/08 01:46:23;;;;;;;;;0.33;0.33;;;;;;;;5187536;28;9137;-77
2023/01/08 01:48:59;;;;;;;;;0.00;0.00;;;;;;;;5171986;28;9813;-78
2023/01/08 01:51:52;;;;;;;;;0.00;0.00;;;;;;;;5190264;28;8945;-78
2023/01/08 01:54:24;;;;;;;;;0.00;0.00;;;;;;;;5170824;28;9124;-76
2023/01/08 01:56:55;;;;;;;;;2.33;1.00;;;;;;;;5188281;28;9253;-76
2023/01/08 01:59:27;;;;;;;;;0.00;0.00;;;;;;;;5171854;28;9219;-76
2023/01/08 02:01:59;;;;;;;;;0.00;0.00;;;;;;;;5191085;28;9049;-76
2023/01/08 02:04:50;;;;;;;;;0.33;0.33;;;;;;;;5195010;28;9697;-75
2023/01/08 02:07:28;;;;;;;;;0.00;0.00;;;;;;;;5208524;28;9121;-75
2023/01/08 02:10:05;;;;;;;;;0.00;0.00;;;;;;;;5207741;28;9206;-75
2023/01/08 02:13:03;;;;;;;;;0.00;0.00;;;;;;;;5208327;28;9261;-75
2023/01/08 02:15:43;;;;;;;;;0.67;0.67;;;;;;;;5207908;28;9839;-75
2023/01/08 02:18:28;;;;;;;;;0.00;0.00;;;;;;;;5207719;28;9360;-75
2023/01/08 02:21:23;;;;;;;;;0.00;0.00;;;;;;;;5191936;28;9142;-75
2023/01/08 02:23:57;;;;;;;;;0.00;0.00;;;;;;;;5180931;28;9147;-76
2023/01/08 02:26:30;;;;;;;;;0.00;0.00;;;;;;;;5174596;28;9252;-76
2023/01/08 02:29:04;;;;;;;;;3.00;3.00;;;;;;;;5207536;28;9190;-77
2023/01/08 02:31:39;;;;;;;;;1.00;1.00;;;;;;;;5174880;28;9329;-78
2023/01/08 02:34:31;;;;;;;;;0.00;0.00;;;;;;;;5193753;28;9245;-77
2023/01/08 02:37:03;;;;;;;;;3.00;3.00;;;;;;;;5190528;28;9289;-77
2023/01/08 02:39:53;;;;;;;;;3.00;3.00;;;;;;;;5193800;28;9360;-77
2023/01/08 02:42:43;;;;;;;;;1.00;1.00;;;;;;;;5174961;28;9966;-78
2023/01/08 02:45:15;;;;;;;;;0.00;0.00;;;;;;;;5192166;28;9251;-77
2023/01/08 02:48:09;;;;;;;;;1.00;1.00;;;;;;;;5195337;28;9260;-77
2023/01/08 02:50:43;;;;;;;;;0.00;0.00;;;;;;;;5178213;28;9108;-76
2023/01/08 02:53:22;;;;;;;;;0.33;0.33;;;;;;;;5210353;28;9120;-76
2023/01/08 02:56:09;;;;;;;;;0.00;0.00;;;;;;;;5176796;28;9198;-74
2023/01/08 02:58:41;;;;;;;;;0.00;0.00;;;;;;;;5192354;28;9730;-74
2023/01/08 03:01:15;;;;;;;;;0.00;0.00;;;;;;;;5206776;28;9199;-75
2023/01/08 03:03:49;;;;;;;;;1.00;1.00;;;;;;;;5190974;28;9851;-75
2023/01/08 03:06:21;;;;;;;;;0.00;0.00;;;;;;;;5206839;28;9156;-73
2023/01/08 03:09:12;;;;;;;;;0.00;0.00;;;;;;;;5220984;28;9331;-73
2023/01/08 03:11:53;;;;;;;;;0.33;0.33;;;;;;;;5190026;28;9035;-75
2023/01/08 03:14:31;;;;;;;;;1.67;1.67;;;;;;;;5174819;28;9201;-74
2023/01/08 03:17:12;;;;;;;;;3.00;3.00;;;;;;;;5173684;28;9259;-74
2023/01/08 03:20:06;;;;;;;;;7.00;7.00;;;;;;;;5206806;28;9397;-75
2023/01/08 03:22:39;;;;;;;;;4.00;3.67;;;;;;;;5194891;28;9751;-81
2023/01/08 03:25:12;;;;;;;;;4.67;4.67;;;;;;;;5212116;28;9571;-79
2023/01/08 03:28:04;;;;;;;;;6.75;6.75;;;;;;;;5212865;28;9725;-78
2023/01/08 03:30:37;;;;;;;;;1.33;1.33;;;;;;;;5191003;28;9909;-76
2023/01/08 03:33:29;;;;;;;;;11.50;11.50;;;;;;;;5206887;28;9669;-79
2023/01/08 03:36:21;;;;;;;;;13.75;9.50;;;;;;;;5193033;28;10077;-79
2023/01/08 03:38:59;;;;;;;;;19.00;17.00;;;;;;;;5190710;28;10046;-78
2023/01/08 03:41:31;;;;;;;;;13.50;12.75;;;;;;;;5174399;28;10216;-77
2023/01/08 03:44:03;;;;;;;;;1.00;1.00;;;;;;;;5173724;28;10041;-76
2023/01/08 03:46:37;;;;;;;;;3.00;3.00;;;;;;;;5190159;28;10184;-76
2023/01/08 03:49:09;;;;;;;;;3.00;3.00;;;;;;;;5206504;28;9399;-76
2023/01/08 03:51:41;;;;;;;;;3.00;3.00;;;;;;;;5189769;28;9422;-76
2023/01/08 03:54:14;;;;;;;;;3.00;3.00;;;;;;;;5189442;28;9605;-76
2023/01/08 03:56:46;;;;;;;;;5.33;5.33;;;;;;;;5189453;28;9640;-77
2023/01/08 03:59:18;;;;;;;;;1.00;1.00;;;;;;;;5172941;28;9779;-76
2023/01/08 04:01:49;;;;;;;;;4.50;4.50;;;;;;;;5206045;28;9583;-77
2023/01/08 04:04:20;;;;;;;;;3.00;2.33;;;;;;;;5205828;28;9837;-76
2023/01/08 04:07:10;;;;;;;;;1.00;1.00;;;;;;;;5220601;28;9810;-78
2023/01/08 04:09:42;;;;;;;;;3.75;3.75;;;;;;;;5228611;28;9754;-78
2023/01/08 04:12:13;;;;;;;;;1.00;1.00;;;;;;;;5195674;28;9703;-79
2023/01/08 04:15:03;;;;;;;;;4.50;4.50;;;;;;;;5192335;28;9986;-75
2023/01/08 04:17:35;;;;;;;;;0.00;0.00;;;;;;;;5173255;28;10143;-76
2023/01/08 04:20:25;;;;;;;;;5.50;5.50;;;;;;;;5191995;28;10021;-76
2023/01/08 04:22:56;;;;;;;;;8.00;7.50;;;;;;;;5188241;28;10146;-77
2023/01/08 04:25:27;;;;;;;;;2.00;1.75;;;;;;;;5188855;28;10407;-78
2023/01/08 04:28:00;;;;;;;;;2.50;2.50;;;;;;;;5189230;28;10050;-76
2023/01/08 04:30:31;;;;;;;;;7.00;7.00;;;;;;;;5188098;28;10201;-76
2023/01/08 04:33:03;;;;;;;;;4.75;4.75;;;;;;;;5188827;28;10223;-77
2023/01/08 04:35:34;;;;;;;;;5.50;5.50;;;;;;;;5205193;28;10046;-80
2023/01/08 04:38:25;;;;;;;;;6.00;6.00;;;;;;;;5205615;28;10910;-80
2023/01/08 04:40:57;;;;;;;;;3.50;3.50;;;;;;;;5172819;28;10226;-80
2023/01/08 04:43:29;;;;;;;;;6.75;6.50;;;;;;;;5205215;28;11005;-79
2023/01/08 04:46:02;;;;;;;;;7.00;6.75;;;;;;;;5171926;28;10931;-77
2023/01/08 04:48:33;;;;;;;;;11.00;11.00;;;;;;;;5172709;28;10287;-74
2023/01/08 04:51:25;;;;;;;;;18.75;17.00;;;;;;;;5190731;28;10657;-75
2023/01/08 04:53:56;;;;;;;;;13.00;13.00;;;;;;;;5188410;28;10608;-75
2023/01/08 04:56:27;;;;;;;;;17.25;17.25;;;;;;;;5188148;28;10641;-75
2023/01/08 04:59:18;;;;;;;;;18.75;18.25;;;;;;;;5204727;28;10643;-73
2023/01/08 05:02:08;;;;;;;;;24.75;22.50;;;;;;;;5190416;28;10603;-76
2023/01/08 05:04:39;;;;;;;;;37.00;36.00;;;;;;;;5205495;28;11210;-75
2023/01/08 05:07:11;;;;;;;;;22.75;22.75;;;;;;;;5204532;28;11512;-78
2023/01/08 05:09:42;;;;;;;;;27.25;24.25;;;;;;;;5173097;28;11092;-80
2023/01/08 05:12:14;;;;;;;;;5.00;5.00;;;;;;;;5188433;28;11484;-77
2023/01/08 05:14:46;;;;;;;;;4.00;4.00;;;;;;;;5172841;28;10404;-74
2023/01/08 05:17:36;;;;;;;;;15.50;15.25;;;;;;;;5206071;28;10456;-72
2023/01/08 05:20:08;;;;;;;;;14.00;8.50;;;;;;;;5187428;28;10907;-76
2023/01/08 05:22:39;;;;;;;;;3.25;3.25;;;;;;;;5187378;28;10619;-75
2023/01/08 05:29:46;;;;;;;;;0.75;0.75;;;;;;;;5205458;28;10261;-73
2023/01/08 05:32:17;;;;;;;;;3.00;3.00;;;;;;;;5187550;28;10216;-75
2023/01/08 05:39:23;;;;;;;;;4.50;3.00;;;;;;;;5206155;28;10766;-74
2023/01/08 05:41:54;;;;;;;;;1.00;1.00;;;;;;;;5173138;28;10727;-74
2023/01/08 05:44:25;;;;;;;;;3.25;3.25;;;;;;;;5187880;28;8796;-74
2023/01/08 05:46:57;;;;;;;;;1.50;1.50;;;;;;;;5187903;28;10513;-74
2023/01/08 05:49:28;;;;;;;;;3.00;3.00;;;;;;;;5203672;28;10525;-74
2023/01/08 05:51:59;;;;;;;;;4.50;4.50;;;;;;;;5204274;28;10689;-73
2023/01/08 05:54:49;;;;;;;;;3.25;3.25;;;;;;;;5205066;28;10803;-77
2023/01/08 05:57:20;;;;;;;;;3.75;3.75;;;;;;;;5204581;28;10570;-76
2023/01/08 05:59:51;;;;;;;;;4.00;4.00;;;;;;;;5204307;28;11255;-78
2023/01/08 06:02:24;;;;;;;;;11.50;9.00;;;;;;;;5187804;28;10685;-73
2023/01/08 06:04:55;;;;;;;;;4.50;3.75;;;;;;;;5203734;28;11525;-75
2023/01/08 06:07:28;;;;;;;;;3.00;3.00;;;;;;;;5187752;28;11449;-76
2023/01/08 06:09:59;;;;;;;;;2.00;2.00;;;;;;;;5204723;28;10780;-75
2023/01/08 06:12:31;;;;;;;;;6.75;6.75;;;;;;;;5188107;28;10436;-72
2023/01/08 06:15:02;;;;;;;;;3.25;3.25;;;;;;;;5203440;28;10646;-71
2023/01/08 06:17:34;;;;;;;;;7.50;7.50;;;;;;;;5204208;28;10566;-72
2023/01/08 06:20:06;;;;;;;;;3.00;3.00;;;;;;;;5171878;28;10760;-76
2023/01/08 06:22:56;;;;;;;;;6.50;6.50;;;;;;;;5204889;28;10595;-76
2023/01/08 06:25:28;;;;;;;;;7.75;7.75;;;;;;;;5188007;28;11446;-77
2023/01/08 06:27:59;;;;;;;;;2.50;2.50;;;;;;;;5188199;28;10764;-72
2023/01/08 06:39:42;;;;;;;;;6.75;6.25;;;;;;;;5188606;28;10772;-82
2023/01/08 06:42:14;;;;;;;;;4.00;4.00;;;;;;;;5173822;28;10925;-78
2023/01/08 06:44:45;;;;;;;;;3.75;3.75;;;;;;;;5135250;28;10813;-77
2023/01/08 06:47:17;;;;;;;;;4.50;4.50;;;;;;;;5139984;28;10671;-82
2023/01/08 06:49:48;;;;;;;;;4.00;3.75;;;;;;;;5161022;28;10829;-83
2023/01/08 06:52:20;;;;;;;;;2.50;2.50;;;;;;;;5176637;28;11223;-84
2023/01/08 06:54:52;;;;;;;;;2.50;2.50;;;;;;;;5189410;28;11273;-80
2023/01/08 06:57:23;;;;;;;;;4.00;4.00;;;;;;;;5155541;28;10582;-79
2023/01/08 06:59:56;;;;;;;;;3.75;3.75;;;;;;;;5170760;28;10595;-81
2023/01/08 07:02:46;;;;;;;;;3.00;3.00;;;;;;;;5159565;28;11479;-76
2023/01/08 07:05:17;;;;;;;;;6.00;5.50;;;;;;;;5154741;28;10581;-77
2023/01/08 07:07:48;;;;;;;;;3.75;3.75;;;;;;;;5138069;28;10807;-76
2023/01/08 07:10:20;;;;;;;;;5.00;5.00;;;;;;;;5170670;28;10506;-78
2023/01/08 07:12:52;;;;;;;;;7.25;7.25;;;;;;;;5138228;28;10736;-81
2023/01/08 07:15:23;;;;;;;;;4.75;4.75;;;;;;;;5138339;28;11503;-78
2023/01/08 07:18:14;;;;;;;;;1.50;1.50;;;;;;;;5175034;28;10861;-80
2023/01/08 07:20:47;;;;;;;;;6.50;6.50;;;;;;;;5205459;28;10571;-78
2023/01/08 07:23:18;;;;;;;;;3.50;3.50;;;;;;;;5210775;28;10769;-82
2023/01/08 07:26:08;;;;;;;;;6.50;6.00;;;;;;;;5195329;28;10930;-80
2023/01/08 07:28:41;;;;;;;;;4.00;3.25;;;;;;;;5161024;28;10656;-82
2023/01/08 07:31:15;;;;;;;;;3.25;3.25;;;;;;;;5139282;28;10359;-82
2023/01/08 07:33:47;;;;;;;;;8.50;7.00;;;;;;;;5180437;28;10649;-80
2023/01/08 07:36:21;;;;;;;;;0.00;0.00;;;;;;;;5175107;28;10725;-78
2023/01/08 07:38:52;;;;;;;;;9.00;9.00;;;;;;;;5208452;28;10616;-80
2023/01/08 07:41:25;;;;;;;;;6.25;5.00;;;;;;;;5174459;28;10969;-75
2023/01/08 07:43:56;;;;;;;;;5.00;5.00;;;;;;;;5174545;28;10744;-81
2023/01/08 07:46:48;;;;;;;;;9.75;9.50;;;;;;;;5191397;28;10937;-77
2023/01/08 07:49:38;;;;;;;;;6.50;6.50;;;;;;;;5178348;28;10926;-78
2023/01/08 07:52:10;;;;;;;;;6.00;6.00;;;;;;;;5177316;28;10806;-80
2023/01/08 07:54:42;;;;;;;;;12.75;12.50;;;;;;;;5206889;28;10734;-80
2023/01/08 07:57:13;;;;;;;;;2.50;2.50;;;;;;;;5190110;28;10955;-78
2023/01/08 07:59:45;;;;;;;;;10.75;10.75;;;;;;;;5158111;28;11441;-79
2023/01/08 08:02:16;;;;;;;;;12.25;12.25;;;;;;;;5174084;28;11550;-78
2023/01/08 08:04:47;;;;;;;;;1.00;1.00;;;;;;;;5159973;28;11094;-80
2023/01/08 08:07:37;;;;;;;;;5.00;5.00;;;;;;;;5192676;28;10733;-78
2023/01/08 08:10:10;;;;;;;;;3.00;3.00;;;;;;;;5175970;28;10812;-82
2023/01/08 08:12:43;;;;;;;;;0.00;0.00;;;;;;;;5208330;28;10912;-80
2023/01/08 08:15:14;;;;;;;;;8.50;8.50;;;;;;;;5190171;28;10460;-79
2023/01/08 08:17:46;;;;;;;;;1.00;1.00;;;;;;;;5173376;28;10624;-74
2023/01/08 08:20:36;;;;;;;;;0.75;0.75;;;;;;;;5207795;28;8889;-84
2023/01/08 08:23:09;;;;;;;;;0.00;0.00;;;;;;;;5174693;28;10492;-76
2023/01/08 08:25:40;;;;;;;;;5.50;5.50;;;;;;;;5188732;28;10329;-79
2023/01/08 08:28:11;;;;;;;;;3.75;3.75;;;;;;;;5174076;28;11249;-78
2023/01/08 08:30:42;;;;;;;;;0.00;0.00;;;;;;;;5205973;28;10270;-79
2023/01/08 08:33:14;;;;;;;;;2.00;2.00;;;;;;;;5190047;28;10271;-77
2023/01/08 08:36:04;;;;;;;;;3.25;3.25;;;;;;;;5189516;28;11337;-80
2023/01/08 08:38:36;;;;;;;;;6.00;6.00;;;;;;;;5191352;28;10260;-76
2023/01/08 08:41:06;;;;;;;;;9.00;9.00;;;;;;;;5188713;28;11297;-78
2023/01/08 08:48:00;;;;;;;;;5.50;5.50;;;;;;;;5206268;28;8719;-78
2023/01/08 08:50:32;;;;;;;;;6.25;6.25;;;;;;;;5190614;28;10391;-78
2023/01/08 08:53:04;;;;;;;;;1.00;1.00;;;;;;;;5172246;28;10490;-79
2023/01/08 08:55:35;;;;;;;;;3.00;3.00;;;;;;;;5188809;28;10241;-78
2023/01/08 08:58:12;;;;;;;;;1.00;1.00;;;;;;;;5172448;28;10410;-77
2023/01/08 09:01:02;;;;;;;;;1.00;1.00;;;;;;;;5175263;28;10236;-79
2023/01/08 09:03:36;;;;;;;;;2.25;2.25;;;;;;;;5188514;28;10367;-77
2023/01/08 09:06:11;;;;;;;;;7.00;7.00;;;;;;;;5188411;28;10417;-78
2023/01/08 09:08:43;;;;;;;;;3.00;3.00;;;;;;;;5188447;28;10421;-77
2023/01/08 09:11:14;;;;;;;;;3.00;3.00;;;;;;;;5172106;28;10329;-79
2023/01/08 09:13:45;;;;;;;;;5.25;3.75;;;;;;;;5194461;28;10189;-80
2023/01/08 09:16:16;;;;;;;;;3.50;3.50;;;;;;;;5188707;28;11100;-80
2023/01/08 09:18:48;;;;;;;;;1.50;1.50;;;;;;;;5187946;28;11405;-79
2023/01/08 09:21:19;;;;;;;;;1.00;1.00;;;;;;;;5173416;28;10333;-75
2023/01/08 09:28:14;;;;;;;;;3.00;3.00;;;;;;;;5206611;28;10172;-75
2023/01/08 09:30:45;;;;;;;;;2.00;2.00;;;;;;;;5204704;28;10785;-76
2023/01/08 09:33:16;;;;;;;;;0.00;0.00;;;;;;;;5187892;28;10433;-76
2023/01/08 09:35:47;;;;;;;;;1.00;1.00;;;;;;;;5188398;28;8798;-74
2023/01/08 09:38:18;;;;;;;;;2.25;0.50;;;;;;;;5189681;28;11469;-80
2023/01/08 09:40:49;;;;;;;;;0.25;0.25;;;;;;;;5189340;28;10465;-78
2023/01/08 09:43:21;;;;;;;;;2.25;2.25;;;;;;;;5174643;28;10487;-77
2023/01/08 09:45:55;;;;;;;;;2.00;2.00;;;;;;;;5184138;28;8809;-77
2023/01/08 09:48:36;;;;;;;;;2.00;2.00;;;;;;;;5205280;28;10385;-78
2023/01/08 09:51:17;;;;;;;;;4.00;4.00;;;;;;;;5217616;28;10426;-77
2023/01/08 09:54:12;;;;;;;;;5.00;5.00;;;;;;;;5195106;28;10404;-78
2023/01/08 09:56:43;;;;;;;;;6.25;6.25;;;;;;;;5208250;28;10519;-77
2023/01/08 09:59:23;;;;;;;;;5.50;5.50;;;;;;;;5174813;28;10672;-76
2023/01/08 10:01:55;;;;;;;;;2.00;2.00;;;;;;;;5193311;28;11366;-79
2023/01/08 10:04:28;;;;;;;;;2.50;2.50;;;;;;;;5198525;28;10614;-78
2023/01/08 10:07:05;;;;;;;;;6.00;6.00;;;;;;;;5181369;28;10735;-79
2023/01/08 10:09:36;;;;;;;;;2.50;2.50;;;;;;;;5182456;28;10621;-76
2023/01/08 10:12:11;;;;;;;;;6.50;6.00;;;;;;;;5189888;28;10689;-76
2023/01/08 10:14:48;;;;;;;;;2.50;2.50;;;;;;;;5188487;28;10556;-76
2023/01/08 10:21:45;;;;;;;;;10.75;10.75;;;;;;;;5207995;28;10483;-75
2023/01/08 10:29:15;;;;;;;;;3.00;2.00;;;;;;;;5217217;28;10653;-80
2023/01/08 10:31:49;;;;;;;;;6.00;6.00;;;;;;;;5178280;28;10529;-81
2023/01/08 10:34:23;;;;;;;;;2.00;1.00;;;;;;;;5216905;28;10708;-79
2023/01/08 10:36:55;;;;;;;;;10.00;8.75;;;;;;;;5208593;28;10747;-73
2023/01/08 10:44:02;;;;;;;;;7.00;7.00;;;;;;;;5211702;28;11721;-76
2023/01/08 10:46:46;;;;;;;;;1.00;1.00;;;;;;;;5175401;28;10612;-76
2023/01/08 10:49:24;;;;;;;;;3.00;3.00;;;;;;;;5176092;28;10659;-77
2023/01/08 10:51:55;;;;;;;;;0.75;0.75;;;;;;;;5192081;28;10833;-74
2023/01/08 10:54:34;;;;;;;;;1.00;1.00;;;;;;;;5191529;28;10701;-78
2023/01/08 10:57:22;;;;;;;;;3.00;3.00;;;;;;;;5159609;28;10554;-76
2023/01/08 10:59:54;;;;;;;;;5.00;4.00;;;;;;;;5208615;28;10639;-76
2023/01/08 11:02:31;;;;;;;;;6.00;6.00;;;;;;;;5176272;28;10805;-78
2023/01/08 11:05:04;;;;;;;;;0.00;0.00;;;;;;;;5211043;28;10852;-79
2023/01/08 11:07:53;;;;;;;;;4.00;4.00;;;;;;;;5193732;28;10732;-78
2023/01/08 11:10:26;;;;;;;;;3.75;3.75;;;;;;;;5176754;28;10840;-78
2023/01/08 11:12:59;;;;;;;;;15.75;14.50;;;;;;;;5175257;28;10694;-78
2023/01/08 11:15:35;;;;;;;;;9.00;9.00;;;;;;;;5190129;28;11386;-76
2023/01/08 11:18:18;;;;;;;;;0.75;0.75;;;;;;;;5174919;28;11087;-76
2023/01/08 11:20:49;;;;;;;;;13.50;13.00;;;;;;;;5175540;28;10865;-77
2023/01/08 11:23:22;;;;;;;;;6.00;6.00;;;;;;;;5173626;28;11389;-78
2023/01/08 11:26:14;;;;;;;;;2.75;2.75;;;;;;;;5190184;28;10931;-78
2023/01/08 11:28:53;;;;;;;;;11.50;8.50;;;;;;;;5174242;28;10875;-76
2023/01/08 11:31:32;;;;;;;;;0.50;0.50;;;;;;;;5190366;28;10888;-77
2023/01/08 11:34:21;;;;;;;;;7.00;7.00;;;;;;;;5172806;28;10678;-77
2023/01/08 11:36:56;;;;;;;;;3.25;3.25;;;;;;;;5190538;28;10997;-77
2023/01/08 11:39:28;;;;;;;;;9.50;9.50;;;;;;;;5173790;28;11805;-80
2023/01/08 11:42:00;;;;;;;;;0.75;0.75;;;;;;;;5174587;28;10894;-80
2023/01/08 11:44:39;;;;;;;;;3.00;3.00;;;;;;;;5192348;28;10697;-78
2023/01/08 11:47:12;;;;;;;;;0.75;0.75;;;;;;;;5158462;28;10553;-78
2023/01/08 11:50:13;;;;;;;;;10.00;10.00;;;;;;;;5190257;28;10621;-78
2023/01/08 11:53:04;;;;;;;;;14.00;9.50;;;;;;;;5192229;28;10983;-77
2023/01/08 11:55:53;;;;;;;;;4.50;4.00;;;;;;;;5208594;28;11842;-77
2023/01/08 11:58:33;;;;;;;;;5.75;5.75;;;;;;;;5189850;28;11039;-78
2023/01/08 12:01:07;;;;;;;;;2.50;2.50;;;;;;;;5191575;28;11350;-78
2023/01/08 12:03:45;;;;;;;;;6.25;4.50;;;;;;;;5191197;28;10812;-77
2023/01/08 12:06:42;;;;;;;;;3.75;3.75;;;;;;;;5206600;28;11007;-79
2023/01/08 12:09:36;;;;;;;;;2.50;2.00;;;;;;;;5182860;28;11024;-78
2023/01/08 12:12:15;;;;;;;;;14.75;13.75;;;;;;;;5173863;28;10829;-78
2023/01/08 12:14:56;;;;;;;;;4.00;4.00;;;;;;;;5190356;28;11160;-77
2023/01/08 12:17:36;;;;;;;;;5.00;4.00;;;;;;;;5189978;28;11025;-76
2023/01/08 12:20:24;;;;;;;;;9.75;9.75;;;;;;;;5192193;28;10894;-76
2023/01/08 12:22:55;;;;;;;;;8.00;8.00;;;;;;;;5189603;28;11110;-77
2023/01/08 12:25:32;;;;;;;;;6.50;6.50;;;;;;;;5174720;28;11065;-80
2023/01/08 12:28:13;;;;;;;;;2.50;2.50;;;;;;;;5174806;28;8759;-78
2023/01/08 12:30:47;;;;;;;;;12.00;9.00;;;;;;;;5192505;28;11069;-80
2023/01/08 12:33:28;;;;;;;;;19.25;18.25;;;;;;;;5178790;28;11372;-78
2023/01/08 12:36:00;;;;;;;;;2.25;2.25;;;;;;;;5195066;28;11394;-80
2023/01/08 12:38:46;;;;;;;;;0.25;0.25;;;;;;;;5194852;28;11392;-79
2023/01/08 12:41:18;;;;;;;;;8.00;8.00;;;;;;;;5194761;28;12042;-78
2023/01/08 12:43:52;;;;;;;;;3.25;3.25;;;;;;;;5175668;28;11511;-80
2023/01/08 12:46:24;;;;;;;;;9.00;8.50;;;;;;;;5172555;28;11352;-83
2023/01/08 12:48:56;;;;;;;;;2.00;2.00;;;;;;;;5172249;28;11352;-77
2023/01/08 12:51:35;;;;;;;;;9.00;9.00;;;;;;;;5173031;28;11337;-78
2023/01/08 12:54:06;;;;;;;;;19.75;19.75;;;;;;;;5158160;28;11355;-78
2023/01/08 12:57:01;;;;;;;;;26.25;23.25;;;;;;;;5174854;28;11479;-76
2023/01/08 12:59:59;;;;;;;;;1.00;1.00;;;;;;;;5176094;28;11421;-76
2023/01/08 13:02:30;;;;;;;;;11.00;10.75;;;;;;;;5156136;28;11367;-79
2023/01/08 13:05:16;;;;;;;;;5.50;5.50;;;;;;;;5173352;28;11352;-78
2023/01/08 13:16:38;;;;;;;;;3.00;3.00;;;;;;;;5205873;28;11366;-78
2023/01/08 13:19:23;;;;;;;;;6.75;6.75;;;;;;;;5156684;28;11391;-78
2023/01/08 13:26:30;;;;;;;;;11.25;11.25;;;;;;;;5206772;28;11975;-77
2023/01/08 13:29:25;;;;;;;;;15.00;11.25;;;;;;;;5205138;28;11394;-78
2023/01/08 13:31:56;;;;;;;;;2.00;2.00;;;;;;;;5172856;28;11342;-77
2023/01/08 13:34:41;;;;;;;;;0.00;0.00;;;;;;;;5175251;28;11408;-77
2023/01/08 13:37:22;;;;;;;;;1.00;1.00;;;;;;;;5152098;28;11459;-78
2023/01/08 13:39:53;;;;;;;;;1.00;1.00;;;;;;;;5169160;28;11393;-79
2023/01/08 13:42:27;;;;;;;;;5.50;5.50;;;;;;;;5186058;28;12145;-75
2023/01/08 13:44:59;;;;;;;;;4.00;4.00;;;;;;;;5167531;28;12073;-77
2023/01/08 13:47:32;;;;;;;;;6.00;6.00;;;;;;;;5158701;28;11391;-76
2023/01/08 13:50:13;;;;;;;;;13.50;13.50;;;;;;;;5190993;28;11536;-76
2023/01/08 13:52:44;;;;;;;;;1.00;0.25;;;;;;;;5198001;28;11397;-78
2023/01/08 13:55:23;;;;;;;;;12.00;11.75;;;;;;;;5155044;28;11516;-78
2023/01/08 14:02:40;;;;;;;;;7.50;7.50;;;;;;;;5189229;28;11329;-82
2023/01/08 14:05:18;;;;;;;;;14.25;13.75;;;;;;;;5156307;28;12099;-77
2023/01/08 14:07:49;;;;;;;;;14.00;14.00;;;;;;;;5155801;28;12206;-78
2023/01/08 14:10:20;;;;;;;;;13.50;12.00;;;;;;;;5172213;28;12221;-82
2023/01/08 14:25:15;;;;;;;;;6.50;6.50;;;;;;;;5173599;28;11473;-77
2023/01/08 14:27:54;;;;;;;;;5.75;5.75;;;;;;;;5158568;28;11421;-78
2023/01/08 14:30:25;;;;;;;;;18.25;17.50;;;;;;;;5196844;28;11434;-77
2023/01/08 14:45:25;;;;;;;;;3.75;3.75;;;;;;;;5177173;28;12234;-79
2023/01/08 14:48:16;;;;;;;;;3.75;3.75;;;;;;;;5157160;28;11530;-76
2023/01/08 14:51:05;;;;;;;;;8.00;7.25;;;;;;;;5170683;28;11528;-74
2023/01/08 14:53:40;;;;;;;;;3.75;3.50;;;;;;;;5154408;28;11520;-77
2023/01/08 14:56:14;;;;;;;;;5.50;5.50;;;;;;;;5154365;28;11595;-77
2023/01/08 14:58:46;;;;;;;;;6.00;6.00;;;;;;;;5169930;28;11645;-77
2023/01/08 15:01:22;;;;;;;;;0.50;0.50;;;;;;;;5154942;28;11624;-77
2023/01/08 15:04:06;;;;;;;;;4.50;4.50;;;;;;;;5153947;28;11484;-77
2023/01/08 15:06:37;;;;;;;;;12.00;12.00;;;;;;;;5169912;28;11557;-79
2023/01/08 15:09:26;;;;;;;;;18.50;14.00;;;;;;;;5153643;28;11537;-78
2023/01/08 15:12:26;;;;;;;;;10.50;10.50;;;;;;;;5173150;28;8823;-78
2023/01/08 15:15:11;;;;;;;;;8.50;8.25;;;;;;;;5154186;28;11594;-76
2023/01/08 15:17:42;;;;;;;;;6.75;6.75;;;;;;;;5170813;28;11553;-77
2023/01/08 15:20:19;;;;;;;;;10.75;9.50;;;;;;;;5186281;28;11555;-79
2023/01/08 15:23:19;;;;;;;;;8.75;8.50;;;;;;;;5170143;28;11611;-79
2023/01/08 15:25:51;;;;;;;;;4.00;4.00;;;;;;;;5153804;28;11557;-81
2023/01/08 15:28:22;;;;;;;;;5.00;5.00;;;;;;;;5154231;28;11539;-80
2023/01/08 15:30:54;;;;;;;;;4.50;4.50;;;;;;;;5153560;28;11513;-79
2023/01/08 15:33:26;;;;;;;;;10.50;9.75;;;;;;;;5153365;28;11527;-79
2023/01/08 15:35:57;;;;;;;;;10.25;10.25;;;;;;;;5156803;28;11582;-77
2023/01/08 15:38:28;;;;;;;;;18.25;18.25;;;;;;;;5169960;28;12229;-79
2023/01/08 15:45:36;;;;;;;;;10.50;10.50;;;;;;;;5187106;28;11506;-75
2023/01/08 15:48:10;;;;;;;;;4.00;4.00;;;;;;;;5170094;28;11510;-76
2023/01/08 15:50:59;;;;;;;;;4.75;4.75;;;;;;;;5186500;28;11511;-77
2023/01/08 15:53:30;;;;;;;;;8.50;8.50;;;;;;;;5189913;28;11585;-78
2023/01/08 15:56:01;;;;;;;;;0.25;0.25;;;;;;;;5186612;28;11520;-77
2023/01/08 15:58:33;;;;;;;;;8.75;8.75;;;;;;;;5186425;28;11470;-78
2023/01/08 16:01:04;;;;;;;;;8.50;8.50;;;;;;;;5170208;28;11467;-78
2023/01/08 16:03:35;;;;;;;;;11.75;11.75;;;;;;;;5171401;28;11632;-78
2023/01/08 16:06:25;;;;;;;;;5.00;3.75;;;;;;;;5194047;28;11574;-77
2023/01/08 16:08:59;;;;;;;;;13.00;13.00;;;;;;;;5184698;28;11508;-81
2023/01/08 16:19:33;;;;;;;;;1.50;1.50;;;;;;;;5167324;28;11394;-79
2023/01/08 16:22:26;;;;;;;;;12.25;12.25;;;;;;;;5190420;28;11375;-76
2023/01/08 16:24:59;;;;;;;;;4.50;4.50;;;;;;;;5168382;28;11487;-74
2023/01/08 16:27:30;;;;;;;;;5.50;5.50;;;;;;;;5168364;28;11382;-79
2023/01/08 16:30:01;;;;;;;;;2.50;2.50;;;;;;;;5168266;28;11405;-75
2023/01/08 16:32:34;;;;;;;;;3.75;3.75;;;;;;;;5170432;28;11375;-79
2023/01/08 16:35:05;;;;;;;;;4.50;4.50;;;;;;;;5151831;28;11528;-76
2023/01/08 16:37:37;;;;;;;;;4.00;4.00;;;;;;;;5185259;28;12328;-78
2023/01/08 16:40:08;;;;;;;;;29.75;29.75;;;;;;;;5152498;28;11429;-79
2023/01/08 16:42:41;;;;;;;;;2.50;2.50;;;;;;;;5144383;28;11614;-76
2023/01/08 16:45:12;;;;;;;;;1.50;1.50;;;;;;;;5185207;28;11620;-74
2023/01/08 16:47:43;;;;;;;;;9.25;9.00;;;;;;;;5189669;28;11484;-74
2023/01/08 16:54:37;;;;;;;;;16.00;14.75;;;;;;;;5180745;28;8781;-78
2023/01/08 16:57:26;;;;;;;;;11.00;11.00;;;;;;;;5181750;28;11548;-78
2023/01/08 17:04:21;;;;;;;;;20.75;20.75;;;;;;;;5180763;28;11592;-78
2023/01/08 17:06:59;;;;;;;;;3.00;3.00;;;;;;;;5173219;28;11543;-80
2023/01/08 17:09:30;;;;;;;;;3.25;3.25;;;;;;;;5166307;28;12259;-78
2023/01/08 17:12:01;;;;;;;;;1.00;1.00;;;;;;;;5165860;28;11519;-79
2023/01/08 17:14:34;;;;;;;;;5.00;5.00;;;;;;;;5182288;28;11512;-84
2023/01/08 17:17:14;;;;;;;;;3.75;3.75;;;;;;;;5167141;28;12204;-79
2023/01/08 17:19:45;;;;;;;;;5.50;5.50;;;;;;;;5133969;28;11520;-78
2023/01/08 17:22:16;;;;;;;;;3.25;3.25;;;;;;;;5149639;28;11613;-81
2023/01/08 17:24:47;;;;;;;;;12.00;12.00;;;;;;;;5132790;28;11520;-83